sensor_id;sensor_type;location;lat;lon;timestamp;temperature;humidity
33827;DHT22;20128;45.582;5.298;2023-08-01T00:00:43;24.60;56.40
33827;DHT22;20128;45.582;5.298;2023-08-01T00:03:09;24.30;56.90
33827;DHT22;20128;45.582;5.298;2023-08-01T00:05:35;23.80;57.60
33827;DHT22;20128;45.582;5.298;2023-08-01T00:08:00;23.40;58.20
33827;DHT22;20128;45.582;5.298;2023-08-01T00:10:28;23.10;59.00
33827;DHT22;20128;45.582;5.298;2023-08-01T00:12:53;22.90;59.40
33827;DHT22;20128;45.582;5.298;2023-08-01T00:15:19;22.90;59.70
33827;DHT22;20128;45.582;5.298;2023-08-01T00:17:44;23.10;59.80
33827;DHT22;20128;45.582;5.298;2023-08-01T00:20:10;23.40;60.10
33827;DHT22;20128;45.582;5.298;2023-08-01T00:22:36;23.50;59.40
33827;DHT22;20128;45.582;5.298;2023-08-01T00:25:02;23.40;59.30
33827;DHT22;20128;45.582;5.298;2023-08-01T00:27:27;23.40;59.30
33827;DHT22;20128;45.582;5.298;2023-08-01T00:29:53;23.20;59.40
33827;DHT22;20128;45.582;5.298;2023-08-01T00:32:19;23.20;59.70
33827;DHT22;20128;45.582;5.298;2023-08-01T00:34:45;23.20;60.00
33827;DHT22;20128;45.582;5.298;2023-08-01T00:37:11;23.00;60.10
33827;DHT22;20128;45.582;5.298;2023-08-01T00:39:36;22.90;60.50
33827;DHT22;20128;45.582;5.298;2023-08-01T00:42:02;22.70;60.70
33827;DHT22;20128;45.582;5.298;2023-08-01T00:44:28;22.70;61.00
33827;DHT22;20128;45.582;5.298;2023-08-01T00:46:54;22.60;61.30
33827;DHT22;20128;45.582;5.298;2023-08-01T00:49:19;22.60;61.40
33827;DHT22;20128;45.582;5.298;2023-08-01T00:51:45;22.60;61.60
33827;DHT22;20128;45.582;5.298;2023-08-01T00:54:11;22.50;62.00
33827;DHT22;20128;45.582;5.298;2023-08-01T00:56:37;22.30;62.50
33827;DHT22;20128;45.582;5.298;2023-08-01T00:59:03;22.10;62.90
33827;DHT22;20128;45.582;5.298;2023-08-01T01:01:28;22.10;62.90
33827;DHT22;20128;45.582;5.298;2023-08-01T01:03:54;22.00;62.80
33827;DHT22;20128;45.582;5.298;2023-08-01T01:06:24;22.10;63.00
33827;DHT22;20128;45.582;5.298;2023-08-01T01:08:50;22.20;62.80
33827;DHT22;20128;45.582;5.298;2023-08-01T01:11:16;22.40;62.50
33827;DHT22;20128;45.582;5.298;2023-08-01T01:13:41;22.60;62.40
33827;DHT22;20128;45.582;5.298;2023-08-01T01:16:07;22.70;62.00
33827;DHT22;20128;45.582;5.298;2023-08-01T01:18:33;22.80;61.60
33827;DHT22;20128;45.582;5.298;2023-08-01T01:20:58;22.80;61.60
33827;DHT22;20128;45.582;5.298;2023-08-01T01:23:25;22.70;61.50
33827;DHT22;20128;45.582;5.298;2023-08-01T01:25:53;22.70;61.50
33827;DHT22;20128;45.582;5.298;2023-08-01T01:28:20;22.50;61.90
33827;DHT22;20128;45.582;5.298;2023-08-01T01:30:46;22.30;62.20
33827;DHT22;20128;45.582;5.298;2023-08-01T01:33:14;22.30;62.30
33827;DHT22;20128;45.582;5.298;2023-08-01T01:35:40;22.30;62.40
33827;DHT22;20128;45.582;5.298;2023-08-01T01:38:06;22.40;62.10
33827;DHT22;20128;45.582;5.298;2023-08-01T01:40:33;22.50;62.00
33827;DHT22;20128;45.582;5.298;2023-08-01T01:42:59;22.60;61.80
33827;DHT22;20128;45.582;5.298;2023-08-01T01:45:25;22.70;61.60
33827;DHT22;20128;45.582;5.298;2023-08-01T01:47:51;22.80;61.50
33827;DHT22;20128;45.582;5.298;2023-08-01T01:50:17;22.90;61.30
33827;DHT22;20128;45.582;5.298;2023-08-01T01:52:43;22.90;61.40
33827;DHT22;20128;45.582;5.298;2023-08-01T01:55:09;22.90;61.30
33827;DHT22;20128;45.582;5.298;2023-08-01T01:57:35;22.90;61.60
33827;DHT22;20128;45.582;5.298;2023-08-01T02:00:05;22.80;61.60
33827;DHT22;20128;45.582;5.298;2023-08-01T02:02:31;22.80;61.70
33827;DHT22;20128;45.582;5.298;2023-08-01T02:04:57;22.90;61.60
33827;DHT22;20128;45.582;5.298;2023-08-01T02:07:22;22.90;61.50
33827;DHT22;20128;45.582;5.298;2023-08-01T02:09:48;22.90;61.50
33827;DHT22;20128;45.582;5.298;2023-08-01T02:12:13;22.60;61.80
33827;DHT22;20128;45.582;5.298;2023-08-01T02:14:40;22.40;62.40
33827;DHT22;20128;45.582;5.298;2023-08-01T02:17:06;22.00;62.80
33827;DHT22;20128;45.582;5.298;2023-08-01T02:19:33;21.90;63.30
33827;DHT22;20128;45.582;5.298;2023-08-01T02:21:58;21.80;63.60
33827;DHT22;20128;45.582;5.298;2023-08-01T02:24:24;22.00;63.70
33827;DHT22;20128;45.582;5.298;2023-08-01T02:26:50;22.10;63.50
33827;DHT22;20128;45.582;5.298;2023-08-01T02:29:16;22.20;63.10
33827;DHT22;20128;45.582;5.298;2023-08-01T02:31:42;22.30;62.80
33827;DHT22;20128;45.582;5.298;2023-08-01T02:34:08;22.30;63.00
33827;DHT22;20128;45.582;5.298;2023-08-01T02:36:33;22.30;63.00
33827;DHT22;20128;45.582;5.298;2023-08-01T02:38:59;22.40;62.90
33827;DHT22;20128;45.582;5.298;2023-08-01T02:41:25;22.40;62.70
33827;DHT22;20128;45.582;5.298;2023-08-01T02:43:50;22.40;62.60
33827;DHT22;20128;45.582;5.298;2023-08-01T02:46:16;22.50;62.50
33827;DHT22;20128;45.582;5.298;2023-08-01T02:48:42;22.50;62.60
33827;DHT22;20128;45.582;5.298;2023-08-01T02:51:07;22.30;62.70
33827;DHT22;20128;45.582;5.298;2023-08-01T02:53:35;22.00;62.90
33827;DHT22;20128;45.582;5.298;2023-08-01T02:56:01;21.70;63.50
33827;DHT22;20128;45.582;5.298;2023-08-01T02:58:27;21.50;64.10
33827;DHT22;20128;45.582;5.298;2023-08-01T03:00:52;21.50;64.10
33827;DHT22;20128;45.582;5.298;2023-08-01T03:03:18;21.40;64.10
33827;DHT22;20128;45.582;5.298;2023-08-01T03:05:43;21.60;64.00
33827;DHT22;20128;45.582;5.298;2023-08-01T03:08:09;21.70;63.80
33827;DHT22;20128;45.582;5.298;2023-08-01T03:10:35;21.60;64.00
33827;DHT22;20128;45.582;5.298;2023-08-01T03:13:00;21.30;64.70
33827;DHT22;20128;45.582;5.298;2023-08-01T03:15:27;21.00;65.50
33827;DHT22;20128;45.582;5.298;2023-08-01T03:17:53;20.80;66.00
33827;DHT22;20128;45.582;5.298;2023-08-01T03:20:19;20.70;66.40
33827;DHT22;20128;45.582;5.298;2023-08-01T03:22:44;20.70;66.70
33827;DHT22;20128;45.582;5.298;2023-08-01T03:25:10;20.50;67.10
33827;DHT22;20128;45.582;5.298;2023-08-01T03:27:36;20.40;67.40
33827;DHT22;20128;45.582;5.298;2023-08-01T03:30:02;20.30;67.80
33827;DHT22;20128;45.582;5.298;2023-08-01T03:32:30;20.20;67.90
33827;DHT22;20128;45.582;5.298;2023-08-01T03:34:55;20.30;67.80
33827;DHT22;20128;45.582;5.298;2023-08-01T03:37:21;20.20;67.70
33827;DHT22;20128;45.582;5.298;2023-08-01T03:39:46;20.20;67.80
33827;DHT22;20128;45.582;5.298;2023-08-01T03:42:12;20.30;67.80
33827;DHT22;20128;45.582;5.298;2023-08-01T03:44:38;20.40;67.50
33827;DHT22;20128;45.582;5.298;2023-08-01T03:47:03;20.60;67.10
33827;DHT22;20128;45.582;5.298;2023-08-01T03:49:29;20.80;66.60
33827;DHT22;20128;45.582;5.298;2023-08-01T03:51:55;21.00;66.50
33827;DHT22;20128;45.582;5.298;2023-08-01T03:54:20;21.20;66.10
33827;DHT22;20128;45.582;5.298;2023-08-01T03:56:46;21.30;65.80
33827;DHT22;20128;45.582;5.298;2023-08-01T03:59:13;21.40;65.60
33827;DHT22;20128;45.582;5.298;2023-08-01T04:01:39;21.40;65.40
33827;DHT22;20128;45.582;5.298;2023-08-01T04:04:05;21.40;65.00
33827;DHT22;20128;45.582;5.298;2023-08-01T04:06:30;21.10;65.00
33827;DHT22;20128;45.582;5.298;2023-08-01T04:08:56;20.80;65.70
33827;DHT22;20128;45.582;5.298;2023-08-01T04:11:22;20.50;66.40
33827;DHT22;20128;45.582;5.298;2023-08-01T04:13:48;20.40;67.00
33827;DHT22;20128;45.582;5.298;2023-08-01T04:16:14;20.40;67.10
33827;DHT22;20128;45.582;5.298;2023-08-01T04:18:39;20.40;67.10
33827;DHT22;20128;45.582;5.298;2023-08-01T04:21:06;20.40;67.20
33827;DHT22;20128;45.582;5.298;2023-08-01T04:23:32;20.50;67.30
33827;DHT22;20128;45.582;5.298;2023-08-01T04:25:57;20.60;67.00
33827;DHT22;20128;45.582;5.298;2023-08-01T04:28:25;20.80;66.90
33827;DHT22;20128;45.582;5.298;2023-08-01T04:30:51;20.90;66.60
33827;DHT22;20128;45.582;5.298;2023-08-01T04:33:17;21.00;66.20
33827;DHT22;20128;45.582;5.298;2023-08-01T04:35:43;21.00;65.80
33827;DHT22;20128;45.582;5.298;2023-08-01T04:38:08;20.90;65.90
33827;DHT22;20128;45.582;5.298;2023-08-01T04:40:36;20.70;66.20
33827;DHT22;20128;45.582;5.298;2023-08-01T04:43:02;20.60;66.60
33827;DHT22;20128;45.582;5.298;2023-08-01T04:45:28;20.50;66.90
33827;DHT22;20128;45.582;5.298;2023-08-01T04:47:53;20.60;67.20
33827;DHT22;20128;45.582;5.298;2023-08-01T04:50:19;20.70;67.00
33827;DHT22;20128;45.582;5.298;2023-08-01T04:52:44;20.80;66.90
33827;DHT22;20128;45.582;5.298;2023-08-01T04:55:10;20.90;66.90
33827;DHT22;20128;45.582;5.298;2023-08-01T04:57:36;21.00;66.70
33827;DHT22;20128;45.582;5.298;2023-08-01T05:00:02;21.10;66.40
33827;DHT22;20128;45.582;5.298;2023-08-01T05:02:28;21.30;66.20
33827;DHT22;20128;45.582;5.298;2023-08-01T05:04:54;21.40;66.00
33827;DHT22;20128;45.582;5.298;2023-08-01T05:07:21;21.40;65.60
33827;DHT22;20128;45.582;5.298;2023-08-01T05:09:46;21.40;65.90
33827;DHT22;20128;45.582;5.298;2023-08-01T05:12:12;21.40;66.10
33827;DHT22;20128;45.582;5.298;2023-08-01T05:14:37;21.40;66.10
33827;DHT22;20128;45.582;5.298;2023-08-01T05:17:03;21.50;66.00
33827;DHT22;20128;45.582;5.298;2023-08-01T05:19:29;21.50;65.80
33827;DHT22;20128;45.582;5.298;2023-08-01T05:21:55;21.60;65.70
33827;DHT22;20128;45.582;5.298;2023-08-01T05:24:20;21.60;65.60
33827;DHT22;20128;45.582;5.298;2023-08-01T05:26:47;21.70;65.70
33827;DHT22;20128;45.582;5.298;2023-08-01T05:29:12;21.80;65.50
33827;DHT22;20128;45.582;5.298;2023-08-01T05:31:38;21.80;65.30
33827;DHT22;20128;45.582;5.298;2023-08-01T05:34:04;21.90;65.20
33827;DHT22;20128;45.582;5.298;2023-08-01T05:36:30;21.90;65.50
33827;DHT22;20128;45.582;5.298;2023-08-01T05:38:56;21.80;65.60
33827;DHT22;20128;45.582;5.298;2023-08-01T05:41:22;21.70;65.80
33827;DHT22;20128;45.582;5.298;2023-08-01T05:43:49;21.70;65.90
33827;DHT22;20128;45.582;5.298;2023-08-01T05:46:15;21.60;66.10
33827;DHT22;20128;45.582;5.298;2023-08-01T05:48:41;21.60;66.10
33827;DHT22;20128;45.582;5.298;2023-08-01T05:51:07;21.70;66.00
33827;DHT22;20128;45.582;5.298;2023-08-01T05:53:32;21.70;65.90
33827;DHT22;20128;45.582;5.298;2023-08-01T05:55:58;21.70;66.00
33827;DHT22;20128;45.582;5.298;2023-08-01T05:58:24;21.80;66.00
33827;DHT22;20128;45.582;5.298;2023-08-01T06:00:49;21.80;66.00
33827;DHT22;20128;45.582;5.298;2023-08-01T06:03:15;21.90;66.10
33827;DHT22;20128;45.582;5.298;2023-08-01T06:05:41;21.90;66.30
33827;DHT22;20128;45.582;5.298;2023-08-01T06:08:07;21.90;66.40
33827;DHT22;20128;45.582;5.298;2023-08-01T06:10:34;22.00;67.00
33827;DHT22;20128;45.582;5.298;2023-08-01T06:13:00;22.00;66.70
33827;DHT22;20128;45.582;5.298;2023-08-01T06:15:25;22.00;66.50
33827;DHT22;20128;45.582;5.298;2023-08-01T06:17:51;21.90;66.70
33827;DHT22;20128;45.582;5.298;2023-08-01T06:20:17;21.90;66.70
33827;DHT22;20128;45.582;5.298;2023-08-01T06:22:42;22.00;67.20
33827;DHT22;20128;45.582;5.298;2023-08-01T06:25:08;22.10;67.10
33827;DHT22;20128;45.582;5.298;2023-08-01T06:27:34;22.10;67.10
33827;DHT22;20128;45.582;5.298;2023-08-01T06:30:00;22.10;67.10
33827;DHT22;20128;45.582;5.298;2023-08-01T06:32:25;22.10;66.90
33827;DHT22;20128;45.582;5.298;2023-08-01T06:34:51;22.10;67.00
33827;DHT22;20128;45.582;5.298;2023-08-01T06:37:17;22.00;67.30
33827;DHT22;20128;45.582;5.298;2023-08-01T06:39:42;22.00;67.40
33827;DHT22;20128;45.582;5.298;2023-08-01T06:42:08;22.00;68.10
33827;DHT22;20128;45.582;5.298;2023-08-01T06:44:34;22.00;67.40
33827;DHT22;20128;45.582;5.298;2023-08-01T06:47:00;21.90;67.50
33827;DHT22;20128;45.582;5.298;2023-08-01T06:49:25;21.80;67.50
33827;DHT22;20128;45.582;5.298;2023-08-01T06:51:51;21.70;67.80
33827;DHT22;20128;45.582;5.298;2023-08-01T06:54:16;21.70;67.90
33827;DHT22;20128;45.582;5.298;2023-08-01T06:56:42;21.70;68.30
33827;DHT22;20128;45.582;5.298;2023-08-01T06:59:16;21.70;68.70
33827;DHT22;20128;45.582;5.298;2023-08-01T07:01:42;21.70;69.20
33827;DHT22;20128;45.582;5.298;2023-08-01T07:04:12;21.80;69.70
33827;DHT22;20128;45.582;5.298;2023-08-01T07:06:39;21.80;70.00
33827;DHT22;20128;45.582;5.298;2023-08-01T07:09:05;21.80;70.70
33827;DHT22;20128;45.582;5.298;2023-08-01T07:11:31;21.90;70.90
33827;DHT22;20128;45.582;5.298;2023-08-01T07:13:56;21.90;71.50
33827;DHT22;20128;45.582;5.298;2023-08-01T07:16:22;21.90;71.40
33827;DHT22;20128;45.582;5.298;2023-08-01T07:18:48;22.00;71.60
33827;DHT22;20128;45.582;5.298;2023-08-01T07:21:14;22.10;71.60
33827;DHT22;20128;45.582;5.298;2023-08-01T07:23:40;22.10;72.00
33827;DHT22;20128;45.582;5.298;2023-08-01T07:26:06;22.20;72.10
33827;DHT22;20128;45.582;5.298;2023-08-01T07:28:31;22.10;72.00
33827;DHT22;20128;45.582;5.298;2023-08-01T07:31:06;22.00;72.30
33827;DHT22;20128;45.582;5.298;2023-08-01T07:33:35;21.90;72.40
33827;DHT22;20128;45.582;5.298;2023-08-01T07:36:01;21.90;72.40
33827;DHT22;20128;45.582;5.298;2023-08-01T07:38:27;21.90;72.40
33827;DHT22;20128;45.582;5.298;2023-08-01T07:40:54;22.00;72.30
33827;DHT22;20128;45.582;5.298;2023-08-01T07:43:20;22.00;71.70
33827;DHT22;20128;45.582;5.298;2023-08-01T07:45:46;22.10;71.20
33827;DHT22;20128;45.582;5.298;2023-08-01T07:48:12;22.20;71.00
33827;DHT22;20128;45.582;5.298;2023-08-01T07:50:37;22.30;70.80
33827;DHT22;20128;45.582;5.298;2023-08-01T07:53:03;22.40;70.00
33827;DHT22;20128;45.582;5.298;2023-08-01T07:55:28;22.40;68.90
33827;DHT22;20128;45.582;5.298;2023-08-01T07:57:54;22.50;68.90
33827;DHT22;20128;45.582;5.298;2023-08-01T08:00:20;22.60;68.40
33827;DHT22;20128;45.582;5.298;2023-08-01T08:02:46;22.60;67.80
33827;DHT22;20128;45.582;5.298;2023-08-01T08:05:12;22.70;67.90
33827;DHT22;20128;45.582;5.298;2023-08-01T08:07:38;22.80;67.70
33827;DHT22;20128;45.582;5.298;2023-08-01T08:10:05;23.00;67.20
33827;DHT22;20128;45.582;5.298;2023-08-01T08:12:31;23.10;66.90
33827;DHT22;20128;45.582;5.298;2023-08-01T08:14:57;23.20;66.30
33827;DHT22;20128;45.582;5.298;2023-08-01T08:17:22;23.20;65.20
33827;DHT22;20128;45.582;5.298;2023-08-01T08:19:48;23.30;65.30
33827;DHT22;20128;45.582;5.298;2023-08-01T08:22:14;23.40;64.90
33827;DHT22;20128;45.582;5.298;2023-08-01T08:24:39;23.40;64.60
33827;DHT22;20128;45.582;5.298;2023-08-01T08:27:05;23.40;65.10
33827;DHT22;20128;45.582;5.298;2023-08-01T08:29:32;23.50;65.40
33827;DHT22;20128;45.582;5.298;2023-08-01T08:31:58;23.50;64.90
33827;DHT22;20128;45.582;5.298;2023-08-01T08:34:24;23.60;64.60
33827;DHT22;20128;45.582;5.298;2023-08-01T08:36:50;23.70;64.90
33827;DHT22;20128;45.582;5.298;2023-08-01T08:39:19;23.70;64.60
33827;DHT22;20128;45.582;5.298;2023-08-01T08:41:50;23.80;64.20
33827;DHT22;20128;45.582;5.298;2023-08-01T08:44:16;23.90;63.50
33827;DHT22;20128;45.582;5.298;2023-08-01T08:46:44;24.00;63.50
33827;DHT22;20128;45.582;5.298;2023-08-01T08:49:10;24.00;61.90
33827;DHT22;20128;45.582;5.298;2023-08-01T08:51:37;24.00;61.30
33827;DHT22;20128;45.582;5.298;2023-08-01T08:54:08;24.00;61.80
33827;DHT22;20128;45.582;5.298;2023-08-01T08:56:34;24.00;61.40
33827;DHT22;20128;45.582;5.298;2023-08-01T08:59:01;24.00;61.00
33827;DHT22;20128;45.582;5.298;2023-08-01T09:01:26;24.00;60.00
33827;DHT22;20128;45.582;5.298;2023-08-01T09:03:52;24.00;59.70
33827;DHT22;20128;45.582;5.298;2023-08-01T09:06:25;24.00;60.30
33827;DHT22;20128;45.582;5.298;2023-08-01T09:09:03;24.10;60.40
33827;DHT22;20128;45.582;5.298;2023-08-01T09:11:45;24.10;60.30
33827;DHT22;20128;45.582;5.298;2023-08-01T09:14:11;24.10;60.00
33827;DHT22;20128;45.582;5.298;2023-08-01T09:16:37;24.20;58.90
33827;DHT22;20128;45.582;5.298;2023-08-01T09:19:03;24.30;60.00
33827;DHT22;20128;45.582;5.298;2023-08-01T09:21:35;24.30;59.70
33827;DHT22;20128;45.582;5.298;2023-08-01T09:24:12;24.30;58.70
33827;DHT22;20128;45.582;5.298;2023-08-01T09:26:39;24.30;58.60
33827;DHT22;20128;45.582;5.298;2023-08-01T09:29:05;24.40;58.80
33827;DHT22;20128;45.582;5.298;2023-08-01T09:31:35;24.40;59.00
33827;DHT22;20128;45.582;5.298;2023-08-01T09:34:02;24.50;58.50
33827;DHT22;20128;45.582;5.298;2023-08-01T09:36:32;24.50;58.20
33827;DHT22;20128;45.582;5.298;2023-08-01T09:38:59;24.60;58.50
33827;DHT22;20128;45.582;5.298;2023-08-01T09:41:25;24.70;58.50
33827;DHT22;20128;45.582;5.298;2023-08-01T09:43:51;24.90;58.70
33827;DHT22;20128;45.582;5.298;2023-08-01T09:46:17;25.10;58.30
33827;DHT22;20128;45.582;5.298;2023-08-01T09:48:42;25.30;57.50
33827;DHT22;20128;45.582;5.298;2023-08-01T09:51:12;25.50;57.50
33827;DHT22;20128;45.582;5.298;2023-08-01T09:53:55;25.60;56.50
33827;DHT22;20128;45.582;5.298;2023-08-01T09:56:23;25.70;55.30
33827;DHT22;20128;45.582;5.298;2023-08-01T09:58:49;25.80;55.20
33827;DHT22;20128;45.582;5.298;2023-08-01T10:01:17;25.90;55.50
33827;DHT22;20128;45.582;5.298;2023-08-01T10:03:47;26.00;55.90
33827;DHT22;20128;45.582;5.298;2023-08-01T10:06:22;26.10;55.20
33827;DHT22;20128;45.582;5.298;2023-08-01T10:08:49;26.20;55.10
33827;DHT22;20128;45.582;5.298;2023-08-01T10:11:18;26.20;55.30
33827;DHT22;20128;45.582;5.298;2023-08-01T10:13:44;26.30;54.40
33827;DHT22;20128;45.582;5.298;2023-08-01T10:16:13;26.30;54.00
33827;DHT22;20128;45.582;5.298;2023-08-01T10:18:39;26.30;53.90
33827;DHT22;20128;45.582;5.298;2023-08-01T10:21:07;26.40;54.40
33827;DHT22;20128;45.582;5.298;2023-08-01T10:23:33;26.50;54.20
33827;DHT22;20128;45.582;5.298;2023-08-01T10:26:00;26.50;53.60
33827;DHT22;20128;45.582;5.298;2023-08-01T10:28:36;26.60;53.80
33827;DHT22;20128;45.582;5.298;2023-08-01T10:31:16;26.80;52.80
33827;DHT22;20128;45.582;5.298;2023-08-01T10:33:46;26.80;52.80
33827;DHT22;20128;45.582;5.298;2023-08-01T10:36:20;26.70;52.60
33827;DHT22;20128;45.582;5.298;2023-08-01T10:38:56;26.80;52.80
33827;DHT22;20128;45.582;5.298;2023-08-01T10:41:27;26.90;52.40
33827;DHT22;20128;45.582;5.298;2023-08-01T10:44:15;27.00;51.70
33827;DHT22;20128;45.582;5.298;2023-08-01T10:46:57;27.00;52.30
33827;DHT22;20128;45.582;5.298;2023-08-01T10:49:39;26.90;51.90
33827;DHT22;20128;45.582;5.298;2023-08-01T10:52:25;26.70;52.30
33827;DHT22;20128;45.582;5.298;2023-08-01T10:55:02;26.70;52.50
33827;DHT22;20128;45.582;5.298;2023-08-01T10:57:29;26.70;52.20
33827;DHT22;20128;45.582;5.298;2023-08-01T10:59:56;26.70;52.60
33827;DHT22;20128;45.582;5.298;2023-08-01T11:02:27;26.70;52.60
33827;DHT22;20128;45.582;5.298;2023-08-01T11:04:59;26.80;52.80
33827;DHT22;20128;45.582;5.298;2023-08-01T11:07:25;26.90;52.20
33827;DHT22;20128;45.582;5.298;2023-08-01T11:10:10;27.00;51.80
33827;DHT22;20128;45.582;5.298;2023-08-01T11:12:41;27.00;52.30
33827;DHT22;20128;45.582;5.298;2023-08-01T11:15:09;27.00;52.10
33827;DHT22;20128;45.582;5.298;2023-08-01T11:17:42;27.10;51.80
33827;DHT22;20128;45.582;5.298;2023-08-01T11:20:09;27.20;51.40
33827;DHT22;20128;45.582;5.298;2023-08-01T11:22:36;27.30;51.40
33827;DHT22;20128;45.582;5.298;2023-08-01T11:25:03;27.50;50.40
33827;DHT22;20128;45.582;5.298;2023-08-01T11:27:29;27.60;50.50
33827;DHT22;20128;45.582;5.298;2023-08-01T11:29:55;27.70;50.40
33827;DHT22;20128;45.582;5.298;2023-08-01T11:32:21;27.70;50.80
33827;DHT22;20128;45.582;5.298;2023-08-01T11:34:48;27.90;50.50
33827;DHT22;20128;45.582;5.298;2023-08-01T11:37:17;28.10;50.20
33827;DHT22;20128;45.582;5.298;2023-08-01T11:39:44;28.30;49.70
33827;DHT22;20128;45.582;5.298;2023-08-01T11:42:16;28.70;49.00
33827;DHT22;20128;45.582;5.298;2023-08-01T11:44:42;28.60;48.40
33827;DHT22;20128;45.582;5.298;2023-08-01T11:47:16;28.60;48.70
33827;DHT22;20128;45.582;5.298;2023-08-01T11:49:45;28.60;49.00
33827;DHT22;20128;45.582;5.298;2023-08-01T11:52:25;28.80;49.00
33827;DHT22;20128;45.582;5.298;2023-08-01T11:54:51;28.90;49.00
33827;DHT22;20128;45.582;5.298;2023-08-01T11:57:17;28.90;49.10
33827;DHT22;20128;45.582;5.298;2023-08-01T11:59:50;28.90;48.80
33827;DHT22;20128;45.582;5.298;2023-08-01T12:02:22;28.70;49.10
33827;DHT22;20128;45.582;5.298;2023-08-01T12:04:49;28.70;49.20
33827;DHT22;20128;45.582;5.298;2023-08-01T12:07:15;28.70;49.20
33827;DHT22;20128;45.582;5.298;2023-08-01T12:09:41;28.70;49.00
33827;DHT22;20128;45.582;5.298;2023-08-01T12:12:08;28.50;49.00
33827;DHT22;20128;45.582;5.298;2023-08-01T12:14:39;28.40;49.70
33827;DHT22;20128;45.582;5.298;2023-08-01T12:17:05;28.40;49.80
33827;DHT22;20128;45.582;5.298;2023-08-01T12:19:31;28.40;49.70
33827;DHT22;20128;45.582;5.298;2023-08-01T12:21:59;28.50;49.30
33827;DHT22;20128;45.582;5.298;2023-08-01T12:24:24;28.60;48.80
33827;DHT22;20128;45.582;5.298;2023-08-01T12:26:50;28.60;48.20
33827;DHT22;20128;45.582;5.298;2023-08-01T12:29:16;28.50;48.70
33827;DHT22;20128;45.582;5.298;2023-08-01T12:31:41;28.40;49.00
33827;DHT22;20128;45.582;5.298;2023-08-01T12:34:08;28.50;48.90
33827;DHT22;20128;45.582;5.298;2023-08-01T12:36:33;28.50;49.20
33827;DHT22;20128;45.582;5.298;2023-08-01T12:38:59;28.60;48.50
33827;DHT22;20128;45.582;5.298;2023-08-01T12:41:25;28.90;48.40
33827;DHT22;20128;45.582;5.298;2023-08-01T12:43:50;29.10;47.60
33827;DHT22;20128;45.582;5.298;2023-08-01T12:46:16;29.30;47.80
33827;DHT22;20128;45.582;5.298;2023-08-01T12:48:42;29.30;47.30
33827;DHT22;20128;45.582;5.298;2023-08-01T12:51:08;29.10;47.60
33827;DHT22;20128;45.582;5.298;2023-08-01T12:53:34;29.00;48.30
33827;DHT22;20128;45.582;5.298;2023-08-01T12:55:59;28.90;48.30
33827;DHT22;20128;45.582;5.298;2023-08-01T12:58:25;28.70;48.40
33827;DHT22;20128;45.582;5.298;2023-08-01T13:00:51;28.60;48.30
33827;DHT22;20128;45.582;5.298;2023-08-01T13:03:16;28.40;48.50
33827;DHT22;20128;45.582;5.298;2023-08-01T13:05:42;28.30;49.00
33827;DHT22;20128;45.582;5.298;2023-08-01T13:08:08;28.20;49.40
33827;DHT22;20128;45.582;5.298;2023-08-01T13:10:37;28.10;49.30
33827;DHT22;20128;45.582;5.298;2023-08-01T13:13:03;28.10;49.80
33827;DHT22;20128;45.582;5.298;2023-08-01T13:15:29;27.90;49.70
33827;DHT22;20128;45.582;5.298;2023-08-01T13:17:55;27.80;50.10
33827;DHT22;20128;45.582;5.298;2023-08-01T13:20:21;27.70;52.10
33827;DHT22;20128;45.582;5.298;2023-08-01T13:22:50;27.60;54.10
33827;DHT22;20128;45.582;5.298;2023-08-01T13:25:16;27.50;54.20
33827;DHT22;20128;45.582;5.298;2023-08-01T13:27:42;27.40;54.90
33827;DHT22;20128;45.582;5.298;2023-08-01T13:30:08;27.30;55.20
33827;DHT22;20128;45.582;5.298;2023-08-01T13:32:34;27.40;55.90
33827;DHT22;20128;45.582;5.298;2023-08-01T13:35:00;27.40;56.50
33827;DHT22;20128;45.582;5.298;2023-08-01T13:37:26;27.50;56.60
33827;DHT22;20128;45.582;5.298;2023-08-01T13:39:53;27.60;57.00
33827;DHT22;20128;45.582;5.298;2023-08-01T13:42:18;28.00;56.10
33827;DHT22;20128;45.582;5.298;2023-08-01T13:44:44;28.30;55.40
33827;DHT22;20128;45.582;5.298;2023-08-01T13:47:10;28.60;53.30
33827;DHT22;20128;45.582;5.298;2023-08-01T13:49:36;28.70;52.00
33827;DHT22;20128;45.582;5.298;2023-08-01T13:52:01;28.70;51.00
33827;DHT22;20128;45.582;5.298;2023-08-01T13:54:28;28.50;51.40
33827;DHT22;20128;45.582;5.298;2023-08-01T13:56:54;28.40;53.00
33827;DHT22;20128;45.582;5.298;2023-08-01T13:59:20;28.30;52.80
33827;DHT22;20128;45.582;5.298;2023-08-01T14:01:46;28.20;54.40
33827;DHT22;20128;45.582;5.298;2023-08-01T14:04:12;28.20;54.90
33827;DHT22;20128;45.582;5.298;2023-08-01T14:06:41;28.10;54.70
33827;DHT22;20128;45.582;5.298;2023-08-01T14:09:08;28.00;54.90
33827;DHT22;20128;45.582;5.298;2023-08-01T14:11:34;28.00;55.50
33827;DHT22;20128;45.582;5.298;2023-08-01T14:14:00;27.90;56.00
33827;DHT22;20128;45.582;5.298;2023-08-01T14:16:26;27.80;55.70
33827;DHT22;20128;45.582;5.298;2023-08-01T14:18:51;27.70;56.00
33827;DHT22;20128;45.582;5.298;2023-08-01T14:21:17;27.70;56.00
33827;DHT22;20128;45.582;5.298;2023-08-01T14:23:43;27.70;56.00
33827;DHT22;20128;45.582;5.298;2023-08-01T14:26:09;27.70;55.60
33827;DHT22;20128;45.582;5.298;2023-08-01T14:28:34;27.80;55.40
33827;DHT22;20128;45.582;5.298;2023-08-01T14:31:01;27.90;54.30
33827;DHT22;20128;45.582;5.298;2023-08-01T14:33:27;28.00;53.40
33827;DHT22;20128;45.582;5.298;2023-08-01T14:35:53;28.00;53.80
33827;DHT22;20128;45.582;5.298;2023-08-01T14:38:19;28.00;53.60
33827;DHT22;20128;45.582;5.298;2023-08-01T14:40:45;28.00;53.70
33827;DHT22;20128;45.582;5.298;2023-08-01T14:43:10;28.00;52.90
33827;DHT22;20128;45.582;5.298;2023-08-01T14:45:42;28.00;52.70
33827;DHT22;20128;45.582;5.298;2023-08-01T14:48:08;28.10;52.60
33827;DHT22;20128;45.582;5.298;2023-08-01T14:50:34;28.20;53.40
33827;DHT22;20128;45.582;5.298;2023-08-01T14:53:00;28.60;52.50
33827;DHT22;20128;45.582;5.298;2023-08-01T14:55:28;28.80;50.60
33827;DHT22;20128;45.582;5.298;2023-08-01T14:57:54;28.90;50.20
33827;DHT22;20128;45.582;5.298;2023-08-01T15:00:20;28.90;50.10
33827;DHT22;20128;45.582;5.298;2023-08-01T15:02:46;29.10;49.80
33827;DHT22;20128;45.582;5.298;2023-08-01T15:05:13;29.30;49.30
33827;DHT22;20128;45.582;5.298;2023-08-01T15:07:39;29.30;49.00
33827;DHT22;20128;45.582;5.298;2023-08-01T15:10:04;29.30;49.00
33827;DHT22;20128;45.582;5.298;2023-08-01T15:12:30;29.40;48.40
33827;DHT22;20128;45.582;5.298;2023-08-01T15:14:56;29.40;48.70
33827;DHT22;20128;45.582;5.298;2023-08-01T15:17:23;29.50;48.40
33827;DHT22;20128;45.582;5.298;2023-08-01T15:19:49;29.40;48.00
33827;DHT22;20128;45.582;5.298;2023-08-01T15:22:18;29.50;48.80
33827;DHT22;20128;45.582;5.298;2023-08-01T15:24:45;29.50;48.50
33827;DHT22;20128;45.582;5.298;2023-08-01T15:27:12;29.70;48.20